Strona główna
METAR-TAF:

METAR-TAF

Lotnisko :

Port lotniczy Wagadugu

Wagadugu, Burkina Faso

Szerokość geograficzna: 12-21N, Długość geograficzna: 001-31W, wysokość: 316 m

Aktualna obserwacja pogody

Raport powstał 28 minut temu, godzina 22:00 UTC
Wiatr 1 kt od północny zachód
Temperatura 25°C
Wilgotność 47%
Ciśnienie 1013 hPa
Widzialność: 8000 m

METAR: DFFD 272200Z 31001KT 8000 NSC 25/13 Q1013 NOSIG

czas: 22:28 (22:28 UTC)

Prognoza

Raport powstał 5 godziny i 28 minut temu, godzina 17:00 UTC
Prognoza ważna od 27 godzina 18 UTC do 28 godzina 24 UTC
Wiatr 8 kt od północ
Widzialność: 8000 m
Przejściowo
od 27 godzina 18 UTC do 27 godzina 20 UTC
Widzialność: 4500 m
pył
Przejściowo
od 28 godzina 06 UTC do 28 godzina 10 UTC
Widzialność: 3500 m
pył

TAF: DFFD 271700Z 2718/2824 36008KT 8000 NSC TEMPO 2718/2720 4500 DU TEMPO 2806/2810 3500 DU

Obserwacja i prognoza pogody dla ponad 4000 lotnisk (raport METAR i TAF).

Dostępne stacje oznaczono żółtymi i czerwonymi punktami na mapie.

Najedź kursorem aby zobaczyć nazwę stacji.

Kliknij aby zobaczyć obserwacje i prognozy pogody.

Aby zmienić mapę: kliknij na zielony przycisk z czarnym krzyżykiem, aby powiększyć; na zielony przycisk z myślnikiem, aby pomniejszyć; na zielone strzałki, aby przejść do map sąsiednich.


METAR-TAF: